createdAt,value
2023-09-08T00:01:13.106Z,101219.44
2023-09-08T00:06:14.727Z,101212.81
2023-09-08T00:11:16.380Z,101212.13
2023-09-08T00:16:18.025Z,101207.66
2023-09-08T00:21:19.616Z,101200.63
2023-09-08T00:26:21.811Z,101196.84
2023-09-08T00:31:23.459Z,101208.25
2023-09-08T00:36:25.355Z,101199.41
2023-09-08T00:41:26.895Z,101214.16
2023-09-08T00:46:29.557Z,101205.34
2023-09-08T00:51:31.373Z,101205.34
2023-09-08T00:56:33.882Z,101207.59
2023-09-08T01:01:35.576Z,101207.81
2023-09-08T01:06:37.372Z,101198.50
2023-09-08T01:11:39.349Z,101206.91
2023-09-08T01:16:41.163Z,101201.66
2023-09-08T01:22:12.537Z,101194.44
2023-09-08T01:27:17.538Z,101191.59
2023-09-08T01:32:19.282Z,101206.47
2023-09-08T01:37:24.454Z,101209.28
2023-09-08T01:42:26.081Z,101208.66
2023-09-08T01:47:31.076Z,101191.28
2023-09-08T01:52:32.685Z,101185.16
2023-09-08T01:57:34.257Z,101181.34
2023-09-08T02:02:35.894Z,101182.59
2023-09-08T02:07:37.505Z,101181.97
2023-09-08T02:12:39.012Z,101180.13
2023-09-08T02:17:40.615Z,101184.19
2023-09-08T02:22:42.224Z,101192.50
2023-09-08T02:27:43.737Z,101183.03
2023-09-08T02:32:45.745Z,101184.19
2023-09-08T02:37:47.366Z,101180.09
2023-09-08T02:42:48.927Z,101184.38
2023-09-08T02:47:50.601Z,101176.75
2023-09-08T02:52:52.159Z,101180.50
2023-09-08T02:57:53.730Z,101176.69
2023-09-08T03:02:56.017Z,101180.28
2023-09-08T03:07:57.818Z,101189.78
2023-09-08T03:12:59.308Z,101187.28
2023-09-08T03:18:00.990Z,101185.25
2023-09-08T03:23:02.854Z,101183.13
2023-09-08T03:28:04.673Z,101187.13
2023-09-08T03:33:06.314Z,101180.91
2023-09-08T03:38:08.075Z,101168.09
2023-09-08T03:43:09.736Z,101169.56
2023-09-08T03:48:11.436Z,101167.69
2023-09-08T03:53:13.575Z,101174.22
2023-09-08T03:58:15.157Z,101170.19
2023-09-08T04:03:16.902Z,101176.63
2023-09-08T04:08:18.530Z,101173.63
2023-09-08T04:13:20.049Z,101169.13
2023-09-08T04:18:21.686Z,101173.00
2023-09-08T04:23:23.422Z,101171.75
2023-09-08T04:28:24.953Z,101164.25
2023-09-08T04:33:27.309Z,101177.16
2023-09-08T04:38:28.997Z,101174.06
2023-09-08T04:43:30.635Z,101165.81
2023-09-08T04:48:32.498Z,101176.19
2023-09-08T04:53:35.861Z,101177.00
2023-09-08T04:58:43.058Z,101178.63
2023-09-08T05:03:48.269Z,101182.13
2023-09-08T05:08:52.870Z,101180.03
2023-09-08T05:13:57.957Z,101179.13
2023-09-08T05:18:59.759Z,101177.31
2023-09-08T05:24:05.336Z,101181.25
2023-09-08T05:29:06.898Z,101188.09
2023-09-08T05:34:09.319Z,101184.59
2023-09-08T05:39:16.275Z,101178.81
2023-09-08T05:44:18.081Z,101173.75
2023-09-08T05:49:19.871Z,101178.97
2023-09-08T05:54:22.234Z,101179.94
2023-09-08T05:59:23.936Z,101178.97
2023-09-08T06:04:31.553Z,101191.06
2023-09-08T06:09:33.924Z,101203.44
2023-09-08T06:14:35.647Z,101202.09
2023-09-08T06:19:39.849Z,101202.19
2023-09-08T06:24:44.553Z,101198.91
2023-09-08T06:29:48.468Z,101196.94
2023-09-08T06:34:50.124Z,101193.00
2023-09-08T06:39:51.939Z,101194.22
2023-09-08T06:44:53.554Z,101205.03
2023-09-08T06:49:55.389Z,101204.34
2023-09-08T06:54:57.337Z,101213.56
2023-09-08T06:59:59.125Z,101210.75
2023-09-08T07:05:00.827Z,101210.88
2023-09-08T07:10:04.603Z,101207.06
2023-09-08T07:15:11.431Z,101208.59
2023-09-08T07:20:13.218Z,101213.69
2023-09-08T07:25:15.001Z,101207.72
2023-09-08T07:30:17.232Z,101205.03
2023-09-08T07:35:19.211Z,101224.81
2023-09-08T07:40:28.443Z,101212.41
2023-09-08T07:45:31.577Z,101224.44
2023-09-08T07:50:41.269Z,101222.13
2023-09-08T07:55:42.914Z,101214.06
2023-09-08T08:00:44.608Z,101213.94
2023-09-08T08:05:46.609Z,101211.16
2023-09-08T08:10:51.091Z,101215.97
2023-09-08T08:15:59.059Z,101217.97
2023-09-08T08:21:00.833Z,101220.47
2023-09-08T08:26:02.611Z,101224.44
2023-09-08T08:31:04.415Z,101211.66
2023-09-08T08:36:06.624Z,101220.78
2023-09-08T08:41:11.189Z,101215.28
2023-09-08T08:46:14.507Z,101218.69
2023-09-08T08:51:18.988Z,101217.84
2023-09-08T08:56:21.015Z,101217.66
2023-09-08T09:01:24.784Z,101213.66
2023-09-08T09:06:26.504Z,101215.69
2023-09-08T09:11:28.630Z,101216.47
2023-09-08T09:16:30.334Z,101213.09
2023-09-08T09:21:46.331Z,101215.28
2023-09-08T09:26:57.494Z,101214.97
2023-09-08T09:32:12.934Z,101213.94
2023-09-08T09:37:14.633Z,101211.88
2023-09-08T09:42:17.751Z,101216.69
2023-09-08T09:47:26.009Z,101216.09
2023-09-08T09:52:27.898Z,101211.13
2023-09-08T09:57:30.840Z,101216.34
2023-09-08T10:02:32.972Z,101215.00
2023-09-08T10:07:34.734Z,101212.63
2023-09-08T10:12:41.299Z,101209.44
2023-09-08T10:18:04.885Z,101207.75
2023-09-08T10:23:21.429Z,101199.72
2023-09-08T10:28:36.444Z,101199.28
2023-09-08T10:33:49.230Z,101194.59
2023-09-08T10:39:25.001Z,101189.72
2023-09-08T10:44:35.361Z,101178.78
2023-09-08T10:49:41.407Z,101182.66
2023-09-08T10:54:51.700Z,101177.84
2023-09-08T10:59:55.248Z,101175.78
2023-09-08T11:04:56.867Z,101174.94
2023-09-08T11:09:58.409Z,101172.19
2023-09-08T11:15:00.919Z,101173.75
2023-09-08T11:20:03.837Z,101175.78
2023-09-08T11:25:07.906Z,101175.66
2023-09-08T11:30:10.240Z,101172.81
2023-09-08T11:35:12.537Z,101168.41
2023-09-08T11:40:14.088Z,101163.69
2023-09-08T11:45:16.484Z,101164.25
2023-09-08T11:50:20.005Z,101164.09
2023-09-08T11:55:23.252Z,101156.72
2023-09-08T12:00:26.464Z,101161.81
2023-09-08T12:05:29.137Z,101168.03
2023-09-08T12:10:30.689Z,101169.41
2023-09-08T12:15:40.199Z,101164.13
2023-09-08T12:20:42.262Z,101160.75
2023-09-08T12:25:51.423Z,101155.38
2023-09-08T12:30:53.096Z,101148.03
2023-09-08T12:35:54.610Z,101142.16
2023-09-08T12:40:56.121Z,101143.91
2023-09-08T12:45:57.961Z,101134.50
2023-09-08T12:50:59.519Z,101134.22
2023-09-08T12:56:00.972Z,101136.84
2023-09-08T13:01:02.475Z,101142.34
2023-09-08T13:06:04.046Z,101125.59
2023-09-08T13:11:05.569Z,101133.22
2023-09-08T13:16:07.047Z,101127.97
2023-09-08T13:21:08.514Z,101118.78
2023-09-08T13:26:09.994Z,101119.97
2023-09-08T13:31:11.748Z,101121.03
2023-09-08T13:36:13.475Z,101119.91
2023-09-08T13:41:15.423Z,101115.34
2023-09-08T13:46:18.078Z,101107.28
2023-09-08T13:51:21.809Z,101113.47
2023-09-08T13:56:25.955Z,101102.34
2023-09-08T14:01:28.694Z,101100.53
2023-09-08T14:06:40.193Z,101092.97
2023-09-08T14:17:04.537Z,101086.94
2023-09-08T14:22:07.233Z,101085.00
2023-09-08T14:27:08.814Z,101082.63
2023-09-08T14:32:10.555Z,101078.22
2023-09-08T14:37:12.009Z,101073.03
2023-09-08T14:42:13.445Z,101065.38
2023-09-08T14:47:14.874Z,101066.28
2023-09-08T14:52:16.331Z,101070.91
2023-09-08T14:57:18.186Z,101067.63
2023-09-08T15:02:19.801Z,101069.34
2023-09-08T15:07:21.389Z,101060.28
2023-09-08T15:12:22.874Z,101058.25
2023-09-08T15:17:24.947Z,101063.38
2023-09-08T15:22:27.179Z,101064.34
2023-09-08T15:27:28.799Z,101053.38
2023-09-08T15:32:30.350Z,101051.72
2023-09-08T15:37:31.886Z,101044.81
2023-09-08T15:42:33.436Z,101045.53
2023-09-08T15:47:34.899Z,101042.75
2023-09-08T15:52:36.421Z,101042.09
2023-09-08T15:57:37.869Z,101038.13
2023-09-08T16:02:39.469Z,101037.53
2023-09-08T16:07:41.013Z,101031.78
2023-09-08T16:12:42.447Z,101036.66
2023-09-08T16:17:43.886Z,101036.69
2023-09-08T16:22:45.487Z,101036.09
2023-09-08T16:27:46.958Z,101035.59
2023-09-08T16:32:48.964Z,101029.94
2023-09-08T16:37:51.040Z,101036.47
2023-09-08T16:42:52.750Z,101026.28
2023-09-08T16:47:54.273Z,101029.09
2023-09-08T16:52:55.808Z,101032.50
2023-09-08T16:57:57.606Z,101040.41
2023-09-08T17:02:59.113Z,101037.09
2023-09-08T17:08:00.592Z,101034.72
2023-09-08T17:13:02.291Z,101035.22
2023-09-08T17:18:07.145Z,101037.53
2023-09-08T17:23:08.759Z,101047.22
2023-09-08T17:28:10.312Z,101041.94
2023-09-08T17:33:11.753Z,101039.53
2023-09-08T17:38:13.738Z,101037.84
2023-09-08T17:43:15.344Z,101044.09
2023-09-08T17:48:16.967Z,101049.69
2023-09-08T17:53:19.831Z,101050.19
2023-09-08T17:58:21.708Z,101050.22
2023-09-08T18:03:23.366Z,101053.16
2023-09-08T18:08:24.890Z,101066.00
2023-09-08T18:13:26.458Z,101062.13
2023-09-08T18:18:28.060Z,101060.19
2023-09-08T18:23:30.066Z,101063.31
2023-09-08T18:28:31.543Z,101064.25
2023-09-08T18:33:33.111Z,101059.66
2023-09-08T18:38:34.773Z,101069.28
2023-09-08T18:43:36.311Z,101065.59
